CLT TRACON Summary / KCLT TAF
CLT TRACON Summary:
High pressure will build into the airspace. Expect VFR conditions under clearing skies. Surface winds will be northwest at 10-15kts, diminishing after 00z. Hazards in the TRACON airspace: LGT-MOD Rime Icing from 040-120, mainly over the mountains.

Updated: 1/27/2015 12:30 PM
CLT Terminal Aerodrome Forecast:

FTUS42 KGSP 271730 AAB
TAFCLT
TAF AMD
KCLT 271730Z 2718/2812 34011G18KT P6SM BKN100
     FM272000 34012G20KT P6SM SCT100
     FM280200 33005KT P6SM SKC=
CLT TRACON Area Remark:
NONE.
Convective Gate Forecast / Icing Gate Forecast / Vertical Wind Profile (click on image to enlarge)
Convective Gate Forecast
Icing Gate Forecast

table with gate forecasts (convective/ CCFP) used April - November

SIGMETS/ Southeast Radar & Satellite Loops (click on image to enlarge)

Southeast Radar Loop

 



USA.gov is the U.S. government's official web portal to all federal, state and local government web resources and services.